sensor_id;sensor_type;location;lat;lon;timestamp;pressure;altitude;pressure_sealevel;temperature;humidity
10366;BME280;5229;41.820;23.490;2023-04-26T00:01:17;89040.81;;;9.90;63.20
10366;BME280;5229;41.820;23.490;2023-04-26T00:03:45;89031.84;;;9.87;63.17
10366;BME280;5229;41.820;23.490;2023-04-26T00:06:12;89032.50;;;9.84;63.53
10366;BME280;5229;41.820;23.490;2023-04-26T00:08:39;89031.63;;;9.80;63.22
10366;BME280;5229;41.820;23.490;2023-04-26T00:11:06;89037.34;;;9.74;63.58
10366;BME280;5229;41.820;23.490;2023-04-26T00:13:33;89036.50;;;9.70;63.48
10366;BME280;5229;41.820;23.490;2023-04-26T00:16:01;89032.69;;;9.67;63.72
10366;BME280;5229;41.820;23.490;2023-04-26T00:18:28;89023.41;;;9.66;63.46
10366;BME280;5229;41.820;23.490;2023-04-26T00:20:57;89028.28;;;9.68;63.15
10366;BME280;5229;41.820;23.490;2023-04-26T00:23:24;89026.00;;;9.66;63.59
10366;BME280;5229;41.820;23.490;2023-04-26T00:25:50;89023.63;;;9.61;63.54
10366;BME280;5229;41.820;23.490;2023-04-26T00:28:17;89025.69;;;9.56;63.32
10366;BME280;5229;41.820;23.490;2023-04-26T00:30:44;89019.09;;;9.58;63.21
10366;BME280;5229;41.820;23.490;2023-04-26T00:33:13;89020.28;;;9.61;62.93
10366;BME280;5229;41.820;23.490;2023-04-26T00:35:40;89016.75;;;9.65;63.07
10366;BME280;5229;41.820;23.490;2023-04-26T00:38:08;89013.19;;;9.70;62.65
10366;BME280;5229;41.820;23.490;2023-04-26T00:40:35;89017.38;;;9.74;62.34
10366;BME280;5229;41.820;23.490;2023-04-26T00:43:02;89019.00;;;9.79;62.03
10366;BME280;5229;41.820;23.490;2023-04-26T00:45:29;89010.50;;;9.78;62.26
10366;BME280;5229;41.820;23.490;2023-04-26T00:47:57;89014.91;;;9.78;62.37
10366;BME280;5229;41.820;23.490;2023-04-26T00:50:24;89014.06;;;9.74;62.17
10366;BME280;5229;41.820;23.490;2023-04-26T00:52:51;89016.53;;;9.70;62.05
10366;BME280;5229;41.820;23.490;2023-04-26T00:55:20;89023.31;;;9.63;63.29
10366;BME280;5229;41.820;23.490;2023-04-26T00:57:48;89021.25;;;9.56;62.74
10366;BME280;5229;41.820;23.490;2023-04-26T01:00:15;89015.84;;;9.49;63.29
10366;BME280;5229;41.820;23.490;2023-04-26T01:02:41;89024.44;;;9.41;63.41
10366;BME280;5229;41.820;23.490;2023-04-26T01:05:08;89029.38;;;9.34;63.59
10366;BME280;5229;41.820;23.490;2023-04-26T01:07:36;89037.69;;;9.28;63.97
10366;BME280;5229;41.820;23.490;2023-04-26T01:10:03;89041.66;;;9.25;63.95
10366;BME280;5229;41.820;23.490;2023-04-26T01:12:32;89033.97;;;9.17;63.87
10366;BME280;5229;41.820;23.490;2023-04-26T01:14:59;89031.78;;;9.07;64.20
10366;BME280;5229;41.820;23.490;2023-04-26T01:17:25;89025.19;;;8.97;64.51
10366;BME280;5229;41.820;23.490;2023-04-26T01:19:52;89028.72;;;8.92;64.52
10366;BME280;5229;41.820;23.490;2023-04-26T01:22:19;89029.19;;;8.86;64.24
10366;BME280;5229;41.820;23.490;2023-04-26T01:24:50;89025.75;;;8.82;64.58
10366;BME280;5229;41.820;23.490;2023-04-26T01:27:17;89028.97;;;8.79;64.64
10366;BME280;5229;41.820;23.490;2023-04-26T01:29:43;89031.88;;;8.77;64.76
10366;BME280;5229;41.820;23.490;2023-04-26T01:32:11;89032.38;;;8.71;64.62
10366;BME280;5229;41.820;23.490;2023-04-26T01:34:38;89034.38;;;8.65;64.69
10366;BME280;5229;41.820;23.490;2023-04-26T01:37:05;89027.16;;;8.59;65.37
10366;BME280;5229;41.820;23.490;2023-04-26T01:39:33;89021.28;;;8.50;64.95
10366;BME280;5229;41.820;23.490;2023-04-26T01:42:02;89021.16;;;8.46;65.50
10366;BME280;5229;41.820;23.490;2023-04-26T01:44:29;89015.84;;;8.43;64.92
10366;BME280;5229;41.820;23.490;2023-04-26T01:46:56;89022.41;;;8.40;65.54
10366;BME280;5229;41.820;23.490;2023-04-26T01:49:23;89015.59;;;8.36;65.58
10366;BME280;5229;41.820;23.490;2023-04-26T01:51:49;89009.69;;;8.35;65.86
10366;BME280;5229;41.820;23.490;2023-04-26T01:54:16;89009.06;;;8.38;65.09
10366;BME280;5229;41.820;23.490;2023-04-26T01:56:43;89008.00;;;8.39;65.34
10366;BME280;5229;41.820;23.490;2023-04-26T01:59:11;89012.84;;;8.41;65.33
10366;BME280;5229;41.820;23.490;2023-04-26T02:01:40;89009.19;;;8.42;65.40
10366;BME280;5229;41.820;23.490;2023-04-26T02:04:07;89004.00;;;8.42;65.22
10366;BME280;5229;41.820;23.490;2023-04-26T02:06:34;89007.69;;;8.41;65.19
10366;BME280;5229;41.820;23.490;2023-04-26T02:09:01;89008.72;;;8.40;65.91
10366;BME280;5229;41.820;23.490;2023-04-26T02:11:27;89009.94;;;8.42;65.56
10366;BME280;5229;41.820;23.490;2023-04-26T02:13:54;89018.88;;;8.45;65.59
10366;BME280;5229;41.820;23.490;2023-04-26T02:16:22;89012.34;;;8.47;65.65
10366;BME280;5229;41.820;23.490;2023-04-26T02:18:49;89006.84;;;8.49;65.45
10366;BME280;5229;41.820;23.490;2023-04-26T02:21:17;89000.59;;;8.50;65.63
10366;BME280;5229;41.820;23.490;2023-04-26T02:23:44;89004.84;;;8.54;65.93
10366;BME280;5229;41.820;23.490;2023-04-26T02:26:12;89004.53;;;8.56;65.64
10366;BME280;5229;41.820;23.490;2023-04-26T02:28:39;88999.97;;;8.53;65.46
10366;BME280;5229;41.820;23.490;2023-04-26T02:31:06;89005.78;;;8.50;65.09
10366;BME280;5229;41.820;23.490;2023-04-26T02:33:35;89002.75;;;8.48;65.30
10366;BME280;5229;41.820;23.490;2023-04-26T02:36:02;89003.38;;;8.45;65.43
10366;BME280;5229;41.820;23.490;2023-04-26T02:38:31;88997.66;;;8.39;66.01
10366;BME280;5229;41.820;23.490;2023-04-26T02:40:58;89000.09;;;8.36;65.97
10366;BME280;5229;41.820;23.490;2023-04-26T02:43:25;89001.50;;;8.33;65.95
10366;BME280;5229;41.820;23.490;2023-04-26T02:45:52;89000.59;;;8.29;66.53
10366;BME280;5229;41.820;23.490;2023-04-26T02:48:18;89004.38;;;8.32;66.08
10366;BME280;5229;41.820;23.490;2023-04-26T02:50:47;89003.75;;;8.35;66.10
10366;BME280;5229;41.820;23.490;2023-04-26T02:53:14;88996.88;;;8.39;66.33
10366;BME280;5229;41.820;23.490;2023-04-26T02:55:42;89005.66;;;8.46;66.42
10366;BME280;5229;41.820;23.490;2023-04-26T02:58:09;89001.06;;;8.52;66.16
10366;BME280;5229;41.820;23.490;2023-04-26T03:00:35;89008.91;;;8.55;66.42
10366;BME280;5229;41.820;23.490;2023-04-26T03:03:02;89000.84;;;8.57;66.07
10366;BME280;5229;41.820;23.490;2023-04-26T03:05:29;88997.53;;;8.56;66.26
10366;BME280;5229;41.820;23.490;2023-04-26T03:07:57;89002.38;;;8.58;66.48
10366;BME280;5229;41.820;23.490;2023-04-26T03:10:24;88998.91;;;8.54;66.39
10366;BME280;5229;41.820;23.490;2023-04-26T03:12:50;89003.66;;;8.52;66.86
10366;BME280;5229;41.820;23.490;2023-04-26T03:15:17;89003.66;;;8.52;66.80
10366;BME280;5229;41.820;23.490;2023-04-26T03:17:44;88996.66;;;8.52;66.09
10366;BME280;5229;41.820;23.490;2023-04-26T03:20:11;88999.97;;;8.53;66.73
10366;BME280;5229;41.820;23.490;2023-04-26T03:22:38;89004.41;;;8.52;66.85
10366;BME280;5229;41.820;23.490;2023-04-26T03:25:07;89003.75;;;8.55;66.29
10366;BME280;5229;41.820;23.490;2023-04-26T03:27:34;89006.66;;;8.54;66.35
10366;BME280;5229;41.820;23.490;2023-04-26T03:30:00;89014.09;;;8.55;66.92
10366;BME280;5229;41.820;23.490;2023-04-26T03:32:28;89012.38;;;8.59;66.58
10366;BME280;5229;41.820;23.490;2023-04-26T03:34:55;89014.78;;;8.64;66.05
10366;BME280;5229;41.820;23.490;2023-04-26T03:37:23;89003.84;;;8.67;66.46
10366;BME280;5229;41.820;23.490;2023-04-26T03:39:49;89006.53;;;8.71;66.50
10366;BME280;5229;41.820;23.490;2023-04-26T03:42:19;89006.97;;;8.73;66.19
10366;BME280;5229;41.820;23.490;2023-04-26T03:44:46;89007.53;;;8.78;66.54
10366;BME280;5229;41.820;23.490;2023-04-26T03:47:13;89005.50;;;8.84;66.09
10366;BME280;5229;41.820;23.490;2023-04-26T03:49:40;89004.88;;;8.87;66.43
10366;BME280;5229;41.820;23.490;2023-04-26T03:52:06;89011.56;;;8.88;66.68
10366;BME280;5229;41.820;23.490;2023-04-26T03:54:33;89009.44;;;8.90;66.81
10366;BME280;5229;41.820;23.490;2023-04-26T03:57:00;89004.38;;;8.93;66.80
10366;BME280;5229;41.820;23.490;2023-04-26T03:59:28;89009.00;;;9.00;67.12
10366;BME280;5229;41.820;23.490;2023-04-26T04:01:55;89014.41;;;9.07;67.16
10366;BME280;5229;41.820;23.490;2023-04-26T04:04:22;89016.81;;;9.12;67.23
10366;BME280;5229;41.820;23.490;2023-04-26T04:06:48;89012.84;;;9.15;66.89
10366;BME280;5229;41.820;23.490;2023-04-26T04:09:15;89013.41;;;9.20;67.08
10366;BME280;5229;41.820;23.490;2023-04-26T04:11:42;89012.31;;;9.21;66.65
10366;BME280;5229;41.820;23.490;2023-04-26T04:14:09;89016.44;;;9.22;66.31
10366;BME280;5229;41.820;23.490;2023-04-26T04:16:37;89013.84;;;9.22;66.75
10366;BME280;5229;41.820;23.490;2023-04-26T04:19:04;89017.31;;;9.26;66.90
10366;BME280;5229;41.820;23.490;2023-04-26T04:21:31;89014.19;;;9.33;66.79
10366;BME280;5229;41.820;23.490;2023-04-26T04:23:58;89010.13;;;9.44;66.92
10366;BME280;5229;41.820;23.490;2023-04-26T04:26:25;89022.66;;;9.54;66.91
10366;BME280;5229;41.820;23.490;2023-04-26T04:28:52;89021.16;;;9.65;66.43
10366;BME280;5229;41.820;23.490;2023-04-26T04:31:19;89018.06;;;9.71;66.25
10366;BME280;5229;41.820;23.490;2023-04-26T04:33:47;89020.88;;;9.78;66.46
10366;BME280;5229;41.820;23.490;2023-04-26T04:36:14;89018.38;;;9.82;66.68
10366;BME280;5229;41.820;23.490;2023-04-26T04:38:42;89020.75;;;9.87;66.19
10366;BME280;5229;41.820;23.490;2023-04-26T04:41:09;89024.31;;;9.94;66.25
10366;BME280;5229;41.820;23.490;2023-04-26T04:43:36;89019.34;;;10.01;66.17
10366;BME280;5229;41.820;23.490;2023-04-26T04:46:03;89024.34;;;10.06;66.50
10366;BME280;5229;41.820;23.490;2023-04-26T04:48:30;89024.47;;;10.10;66.62
10366;BME280;5229;41.820;23.490;2023-04-26T04:50:58;89018.97;;;10.11;66.21
10366;BME280;5229;41.820;23.490;2023-04-26T04:53:24;89030.50;;;10.14;66.25
10366;BME280;5229;41.820;23.490;2023-04-26T04:55:51;89028.34;;;10.16;66.52
10366;BME280;5229;41.820;23.490;2023-04-26T04:58:18;89027.25;;;10.17;66.58
10366;BME280;5229;41.820;23.490;2023-04-26T05:00:46;89032.88;;;10.19;66.98
10366;BME280;5229;41.820;23.490;2023-04-26T05:03:13;89032.88;;;10.19;66.96
10366;BME280;5229;41.820;23.490;2023-04-26T05:05:40;89016.25;;;10.20;66.86
10366;BME280;5229;41.820;23.490;2023-04-26T05:08:08;89029.31;;;10.23;66.72
10366;BME280;5229;41.820;23.490;2023-04-26T05:10:35;89028.66;;;10.26;66.60
10366;BME280;5229;41.820;23.490;2023-04-26T05:13:01;89025.50;;;10.33;66.76
10366;BME280;5229;41.820;23.490;2023-04-26T05:15:28;89016.56;;;10.42;66.90
10366;BME280;5229;41.820;23.490;2023-04-26T05:17:55;89015.56;;;10.47;67.14
10366;BME280;5229;41.820;23.490;2023-04-26T05:20:23;89010.19;;;10.52;66.80
10366;BME280;5229;41.820;23.490;2023-04-26T05:22:50;89010.72;;;10.57;66.77
10366;BME280;5229;41.820;23.490;2023-04-26T05:25:18;89014.91;;;10.62;66.46
10366;BME280;5229;41.820;23.490;2023-04-26T05:27:45;89012.09;;;10.67;66.48
10366;BME280;5229;41.820;23.490;2023-04-26T05:30:12;89008.72;;;10.78;66.56
10366;BME280;5229;41.820;23.490;2023-04-26T05:32:39;89006.41;;;10.89;66.62
10366;BME280;5229;41.820;23.490;2023-04-26T05:35:07;89011.91;;;10.99;66.62
10366;BME280;5229;41.820;23.490;2023-04-26T05:37:34;89005.91;;;11.11;66.36
10366;BME280;5229;41.820;23.490;2023-04-26T05:40:01;89004.69;;;11.20;66.63
10366;BME280;5229;41.820;23.490;2023-04-26T05:42:30;89006.03;;;11.30;65.75
10366;BME280;5229;41.820;23.490;2023-04-26T05:44:57;89013.25;;;11.36;65.08
10366;BME280;5229;41.820;23.490;2023-04-26T05:47:24;89013.75;;;11.42;65.57
10366;BME280;5229;41.820;23.490;2023-04-26T05:49:51;89012.38;;;11.44;65.56
10366;BME280;5229;41.820;23.490;2023-04-26T05:52:18;89004.66;;;11.48;65.46
10366;BME280;5229;41.820;23.490;2023-04-26T05:54:44;89009.19;;;11.51;65.58
10366;BME280;5229;41.820;23.490;2023-04-26T05:57:11;89007.75;;;11.53;64.97
10366;BME280;5229;41.820;23.490;2023-04-26T05:59:40;89007.53;;;11.58;65.28
10366;BME280;5229;41.820;23.490;2023-04-26T06:02:07;89018.97;;;11.57;65.49
10366;BME280;5229;41.820;23.490;2023-04-26T06:04:33;89017.56;;;11.60;65.08
10366;BME280;5229;41.820;23.490;2023-04-26T06:07:00;89012.06;;;11.61;64.84
10366;BME280;5229;41.820;23.490;2023-04-26T06:09:30;89013.59;;;11.62;64.16
10366;BME280;5229;41.820;23.490;2023-04-26T06:11:57;89020.50;;;11.58;64.46
10366;BME280;5229;41.820;23.490;2023-04-26T06:14:23;89015.53;;;11.53;64.46
10366;BME280;5229;41.820;23.490;2023-04-26T06:16:52;89015.38;;;11.46;64.40
10366;BME280;5229;41.820;23.490;2023-04-26T06:19:19;89022.31;;;11.42;63.64
10366;BME280;5229;41.820;23.490;2023-04-26T06:21:46;89021.47;;;11.38;64.68
10366;BME280;5229;41.820;23.490;2023-04-26T06:24:13;89019.84;;;11.34;64.32
10366;BME280;5229;41.820;23.490;2023-04-26T06:26:40;89019.84;;;11.34;64.05
10366;BME280;5229;41.820;23.490;2023-04-26T06:29:06;89024.28;;;11.33;64.24
10366;BME280;5229;41.820;23.490;2023-04-26T06:31:33;89024.28;;;11.33;64.68
10366;BME280;5229;41.820;23.490;2023-04-26T06:34:01;89022.06;;;11.32;64.27
10366;BME280;5229;41.820;23.490;2023-04-26T06:36:28;89024.88;;;11.27;64.05
10366;BME280;5229;41.820;23.490;2023-04-26T06:38:55;89020.66;;;11.22;65.21
10366;BME280;5229;41.820;23.490;2023-04-26T06:41:22;89027.59;;;11.18;64.94
10366;BME280;5229;41.820;23.490;2023-04-26T06:43:49;89024.59;;;11.16;64.72
10366;BME280;5229;41.820;23.490;2023-04-26T06:46:15;89019.41;;;11.16;65.18
10366;BME280;5229;41.820;23.490;2023-04-26T06:48:42;89031.38;;;11.21;64.78
10366;BME280;5229;41.820;23.490;2023-04-26T06:51:10;89032.56;;;11.23;65.78
10366;BME280;5229;41.820;23.490;2023-04-26T06:53:37;89027.13;;;11.28;64.50
10366;BME280;5229;41.820;23.490;2023-04-26T06:56:04;89025.81;;;11.34;64.51
10366;BME280;5229;41.820;23.490;2023-04-26T06:58:31;89034.53;;;11.42;64.80
10366;BME280;5229;41.820;23.490;2023-04-26T07:00:58;89038.06;;;11.49;64.44
10366;BME280;5229;41.820;23.490;2023-04-26T07:03:25;89033.50;;;11.58;65.35
10366;BME280;5229;41.820;23.490;2023-04-26T07:05:54;89037.88;;;11.70;64.05
10366;BME280;5229;41.820;23.490;2023-04-26T07:08:22;89041.81;;;11.79;64.73
10366;BME280;5229;41.820;23.490;2023-04-26T07:10:48;89043.53;;;11.88;64.88
10366;BME280;5229;41.820;23.490;2023-04-26T07:13:16;89045.53;;;11.94;64.67
10366;BME280;5229;41.820;23.490;2023-04-26T07:15:42;89051.22;;;12.00;64.14
10366;BME280;5229;41.820;23.490;2023-04-26T07:18:09;89047.72;;;12.08;64.22
10366;BME280;5229;41.820;23.490;2023-04-26T07:20:36;89051.69;;;12.17;63.87
10366;BME280;5229;41.820;23.490;2023-04-26T07:23:03;89048.53;;;12.27;64.01
10366;BME280;5229;41.820;23.490;2023-04-26T07:25:31;89048.81;;;12.38;64.15
10366;BME280;5229;41.820;23.490;2023-04-26T07:27:57;89053.06;;;12.46;64.30
10366;BME280;5229;41.820;23.490;2023-04-26T07:30:24;89050.97;;;12.51;63.72
10366;BME280;5229;41.820;23.490;2023-04-26T07:32:51;89054.06;;;12.57;63.81
10366;BME280;5229;41.820;23.490;2023-04-26T07:35:18;89060.09;;;12.61;63.79
10366;BME280;5229;41.820;23.490;2023-04-26T07:37:45;89061.19;;;12.60;63.47
10366;BME280;5229;41.820;23.490;2023-04-26T07:40:12;89065.28;;;12.61;63.13
10366;BME280;5229;41.820;23.490;2023-04-26T07:42:43;89060.94;;;12.65;63.86
10366;BME280;5229;41.820;23.490;2023-04-26T07:45:10;89062.13;;;12.67;63.70
10366;BME280;5229;41.820;23.490;2023-04-26T07:47:37;89069.16;;;12.67;63.39
10366;BME280;5229;41.820;23.490;2023-04-26T07:50:05;89061.00;;;12.68;63.66
10366;BME280;5229;41.820;23.490;2023-04-26T07:52:33;89058.56;;;12.75;63.96
10366;BME280;5229;41.820;23.490;2023-04-26T07:54:59;89067.28;;;12.83;63.74
10366;BME280;5229;41.820;23.490;2023-04-26T07:57:26;89065.19;;;12.88;63.40
10366;BME280;5229;41.820;23.490;2023-04-26T07:59:54;89066.84;;;12.96;63.12
10366;BME280;5229;41.820;23.490;2023-04-26T08:02:21;89062.56;;;13.04;62.71
10366;BME280;5229;41.820;23.490;2023-04-26T08:04:49;89065.72;;;13.13;62.22
10366;BME280;5229;41.820;23.490;2023-04-26T08:07:17;89065.88;;;13.20;61.84
10366;BME280;5229;41.820;23.490;2023-04-26T08:09:44;89061.47;;;13.24;62.17
10366;BME280;5229;41.820;23.490;2023-04-26T08:12:10;89065.75;;;13.32;62.22
10366;BME280;5229;41.820;23.490;2023-04-26T08:14:38;89068.06;;;13.37;61.88
10366;BME280;5229;41.820;23.490;2023-04-26T08:17:06;89067.09;;;13.45;62.06
10366;BME280;5229;41.820;23.490;2023-04-26T08:19:33;89067.88;;;13.45;61.31
10366;BME280;5229;41.820;23.490;2023-04-26T08:22:00;89065.75;;;13.51;61.40
10366;BME280;5229;41.820;23.490;2023-04-26T08:24:27;89051.03;;;13.58;61.44
10366;BME280;5229;41.820;23.490;2023-04-26T08:26:54;89059.69;;;13.66;60.98
10366;BME280;5229;41.820;23.490;2023-04-26T08:29:22;89051.19;;;13.69;60.82
10366;BME280;5229;41.820;23.490;2023-04-26T08:31:49;89054.63;;;13.73;60.43
10366;BME280;5229;41.820;23.490;2023-04-26T08:34:18;89054.28;;;13.74;59.86
10366;BME280;5229;41.820;23.490;2023-04-26T08:36:44;89048.66;;;13.72;59.79
10366;BME280;5229;41.820;23.490;2023-04-26T08:39:11;89056.47;;;13.72;59.68
10366;BME280;5229;41.820;23.490;2023-04-26T08:41:42;89051.69;;;13.74;59.64
10366;BME280;5229;41.820;23.490;2023-04-26T08:44:09;89066.53;;;13.74;59.32
10366;BME280;5229;41.820;23.490;2023-04-26T08:46:44;89056.13;;;13.74;58.57
10366;BME280;5229;41.820;23.490;2023-04-26T08:49:21;89057.56;;;13.71;58.48
10366;BME280;5229;41.820;23.490;2023-04-26T08:51:51;89058.38;;;13.75;59.22
10366;BME280;5229;41.820;23.490;2023-04-26T08:54:19;89063.00;;;13.82;58.73
10366;BME280;5229;41.820;23.490;2023-04-26T08:56:46;89062.78;;;13.90;58.91
10366;BME280;5229;41.820;23.490;2023-04-26T08:59:14;89056.03;;;13.89;58.29
10366;BME280;5229;41.820;23.490;2023-04-26T09:01:42;89059.75;;;13.88;58.33
10366;BME280;5229;41.820;23.490;2023-04-26T09:04:09;89060.03;;;13.83;58.55
10366;BME280;5229;41.820;23.490;2023-04-26T09:06:39;89056.66;;;13.83;58.61
10366;BME280;5229;41.820;23.490;2023-04-26T09:09:07;89053.31;;;13.82;58.62
10366;BME280;5229;41.820;23.490;2023-04-26T09:11:55;89056.66;;;13.83;58.12
10366;BME280;5229;41.820;23.490;2023-04-26T09:14:22;89061.94;;;13.86;58.10
10366;BME280;5229;41.820;23.490;2023-04-26T09:16:49;89060.44;;;13.85;58.43
10366;BME280;5229;41.820;23.490;2023-04-26T09:19:16;89057.91;;;13.89;58.32
10366;BME280;5229;41.820;23.490;2023-04-26T09:21:45;89060.50;;;13.89;58.01
10366;BME280;5229;41.820;23.490;2023-04-26T09:24:12;89063.50;;;13.91;58.43
10366;BME280;5229;41.820;23.490;2023-04-26T09:26:40;89061.31;;;13.93;58.35
10366;BME280;5229;41.820;23.490;2023-04-26T09:29:12;89059.88;;;13.95;58.02
10366;BME280;5229;41.820;23.490;2023-04-26T09:31:41;89059.19;;;13.98;58.41
10366;BME280;5229;41.820;23.490;2023-04-26T09:34:09;89052.53;;;14.01;58.53
10366;BME280;5229;41.820;23.490;2023-04-26T09:36:48;89060.03;;;14.06;58.29
10366;BME280;5229;41.820;23.490;2023-04-26T09:39:28;89053.09;;;14.13;58.58
10366;BME280;5229;41.820;23.490;2023-04-26T09:41:57;89051.47;;;14.24;58.28
10366;BME280;5229;41.820;23.490;2023-04-26T09:44:24;89041.22;;;14.35;58.47
10366;BME280;5229;41.820;23.490;2023-04-26T09:47:02;89039.09;;;14.44;58.53
10366;BME280;5229;41.820;23.490;2023-04-26T09:49:31;89043.94;;;14.68;57.73
10366;BME280;5229;41.820;23.490;2023-04-26T09:52:08;89041.41;;;14.98;57.20
10366;BME280;5229;41.820;23.490;2023-04-26T09:54:43;89039.59;;;15.31;56.23
10366;BME280;5229;41.820;23.490;2023-04-26T09:57:10;89037.34;;;15.59;56.06
10366;BME280;5229;41.820;23.490;2023-04-26T09:59:44;89039.34;;;15.69;56.21
10366;BME280;5229;41.820;23.490;2023-04-26T10:02:14;89037.81;;;15.68;55.79
10366;BME280;5229;41.820;23.490;2023-04-26T10:04:44;89033.34;;;15.69;55.85
10366;BME280;5229;41.820;23.490;2023-04-26T10:07:14;89034.13;;;15.69;55.73
10366;BME280;5229;41.820;23.490;2023-04-26T10:09:42;89031.16;;;15.71;55.94
10366;BME280;5229;41.820;23.490;2023-04-26T10:12:10;89030.81;;;15.76;56.35
10366;BME280;5229;41.820;23.490;2023-04-26T10:14:37;89028.28;;;15.83;55.28
10366;BME280;5229;41.820;23.490;2023-04-26T10:17:04;89022.34;;;15.89;55.28
10366;BME280;5229;41.820;23.490;2023-04-26T10:19:32;89019.09;;;15.96;55.20
10366;BME280;5229;41.820;23.490;2023-04-26T10:22:04;89020.94;;;15.95;54.65
10366;BME280;5229;41.820;23.490;2023-04-26T10:24:33;89013.44;;;15.94;55.15
10366;BME280;5229;41.820;23.490;2023-04-26T10:27:00;89008.94;;;15.91;55.20
10366;BME280;5229;41.820;23.490;2023-04-26T10:32:28;89011.88;;;15.86;54.61
10366;BME280;5229;41.820;23.490;2023-04-26T10:35:09;89011.41;;;15.77;54.31
10366;BME280;5229;41.820;23.490;2023-04-26T10:37:37;89008.34;;;15.68;54.18
10366;BME280;5229;41.820;23.490;2023-04-26T10:40:26;89007.50;;;15.60;54.08
10366;BME280;5229;41.820;23.490;2023-04-26T10:45:50;89002.63;;;15.59;54.27
10366;BME280;5229;41.820;23.490;2023-04-26T10:48:18;89004.19;;;15.67;53.65
10366;BME280;5229;41.820;23.490;2023-04-26T10:51:08;88999.41;;;15.72;53.61
10366;BME280;5229;41.820;23.490;2023-04-26T10:53:57;89002.13;;;15.83;54.06
10366;BME280;5229;41.820;23.490;2023-04-26T10:56:50;89013.03;;;15.88;53.93
10366;BME280;5229;41.820;23.490;2023-04-26T10:59:21;89016.53;;;16.03;53.54
10366;BME280;5229;41.820;23.490;2023-04-26T11:01:48;89003.88;;;16.08;52.75
10366;BME280;5229;41.820;23.490;2023-04-26T11:04:14;89007.72;;;16.21;53.15
10366;BME280;5229;41.820;23.490;2023-04-26T11:06:49;88999.69;;;16.40;51.92
10366;BME280;5229;41.820;23.490;2023-04-26T11:09:36;89012.59;;;16.63;51.79
10366;BME280;5229;41.820;23.490;2023-04-26T11:12:06;89002.22;;;16.80;51.04
10366;BME280;5229;41.820;23.490;2023-04-26T11:14:33;89013.56;;;16.98;50.94
10366;BME280;5229;41.820;23.490;2023-04-26T11:17:02;89015.16;;;17.13;50.75
10366;BME280;5229;41.820;23.490;2023-04-26T11:19:30;89011.06;;;17.19;50.29
10366;BME280;5229;41.820;23.490;2023-04-26T11:21:57;89015.56;;;17.19;49.80
10366;BME280;5229;41.820;23.490;2023-04-26T11:24:25;89015.16;;;17.13;49.19
10366;BME280;5229;41.820;23.490;2023-04-26T11:26:51;89013.25;;;17.03;49.28
10366;BME280;5229;41.820;23.490;2023-04-26T11:29:20;89020.25;;;16.92;49.33
10366;BME280;5229;41.820;23.490;2023-04-26T11:31:51;89015.38;;;16.84;49.11
10366;BME280;5229;41.820;23.490;2023-04-26T11:34:21;89016.31;;;16.62;48.86
10366;BME280;5229;41.820;23.490;2023-04-26T11:36:50;89013.94;;;16.46;49.13
10366;BME280;5229;41.820;23.490;2023-04-26T11:39:20;89011.97;;;16.36;48.55
10366;BME280;5229;41.820;23.490;2023-04-26T11:41:48;89015.97;;;16.23;48.89
10366;BME280;5229;41.820;23.490;2023-04-26T11:44:17;89019.16;;;16.03;48.21
10366;BME280;5229;41.820;23.490;2023-04-26T11:46:46;89009.56;;;15.77;48.25
10366;BME280;5229;41.820;23.490;2023-04-26T11:49:14;89008.63;;;15.63;48.65
10366;BME280;5229;41.820;23.490;2023-04-26T11:51:41;89005.88;;;15.49;48.40
10366;BME280;5229;41.820;23.490;2023-04-26T11:54:08;89005.00;;;15.38;48.81
10366;BME280;5229;41.820;23.490;2023-04-26T11:56:35;89001.56;;;15.34;48.87
10366;BME280;5229;41.820;23.490;2023-04-26T11:59:04;89003.91;;;15.13;49.37
10366;BME280;5229;41.820;23.490;2023-04-26T12:01:30;89013.06;;;15.00;49.46
10366;BME280;5229;41.820;23.490;2023-04-26T12:03:59;89005.09;;;14.89;49.50
10366;BME280;5229;41.820;23.490;2023-04-26T12:06:29;89003.69;;;14.69;49.93
10366;BME280;5229;41.820;23.490;2023-04-26T12:08:57;89014.25;;;14.50;50.39
10366;BME280;5229;41.820;23.490;2023-04-26T12:11:23;89009.13;;;14.31;50.73
10366;BME280;5229;41.820;23.490;2023-04-26T12:13:50;89010.63;;;14.13;51.54
10366;BME280;5229;41.820;23.490;2023-04-26T12:16:17;89015.56;;;13.95;51.76
10366;BME280;5229;41.820;23.490;2023-04-26T12:18:49;89013.34;;;13.75;52.37
10366;BME280;5229;41.820;23.490;2023-04-26T12:21:18;89014.69;;;13.65;52.84
10366;BME280;5229;41.820;23.490;2023-04-26T12:23:45;89015.84;;;13.49;52.92
10366;BME280;5229;41.820;23.490;2023-04-26T12:26:13;89016.34;;;13.35;53.75
10366;BME280;5229;41.820;23.490;2023-04-26T12:28:40;89015.72;;;13.23;53.41
10366;BME280;5229;41.820;23.490;2023-04-26T12:31:08;89016.25;;;13.13;54.38
10366;BME280;5229;41.820;23.490;2023-04-26T12:33:35;89015.03;;;13.07;54.19
10366;BME280;5229;41.820;23.490;2023-04-26T12:36:06;89029.63;;;12.96;55.05
10366;BME280;5229;41.820;23.490;2023-04-26T12:38:34;89028.00;;;12.88;54.28
10366;BME280;5229;41.820;23.490;2023-04-26T12:41:01;89038.34;;;12.84;55.13
10366;BME280;5229;41.820;23.490;2023-04-26T12:43:28;89032.38;;;12.84;54.94
10366;BME280;5229;41.820;23.490;2023-04-26T12:45:55;89035.97;;;12.79;54.84
10366;BME280;5229;41.820;23.490;2023-04-26T12:48:22;89041.66;;;12.66;55.20
10366;BME280;5229;41.820;23.490;2023-04-26T12:50:49;89044.44;;;12.57;55.20
10366;BME280;5229;41.820;23.490;2023-04-26T12:53:15;89047.28;;;12.52;54.47
10366;BME280;5229;41.820;23.490;2023-04-26T12:55:44;89061.38;;;12.51;54.93
10366;BME280;5229;41.820;23.490;2023-04-26T12:58:11;89050.97;;;12.51;55.16
10366;BME280;5229;41.820;23.490;2023-04-26T13:00:38;89053.75;;;12.43;54.81
10366;BME280;5229;41.820;23.490;2023-04-26T13:03:04;89054.50;;;12.28;56.03
10366;BME280;5229;41.820;23.490;2023-04-26T13:05:31;89058.97;;;12.12;56.85
10366;BME280;5229;41.820;23.490;2023-04-26T13:07:58;89060.47;;;11.97;56.95
10366;BME280;5229;41.820;23.490;2023-04-26T13:10:26;89051.16;;;11.80;57.12
10366;BME280;5229;41.820;23.490;2023-04-26T13:12:54;89058.81;;;11.61;57.37
10366;BME280;5229;41.820;23.490;2023-04-26T13:15:22;89059.31;;;11.39;58.79